Time;durP1;ratioP1;P1;durP2;ratioP2;P2;SDS_P1;SDS_P2;PMS_P1;PMS_P2;Temp;Humidity;BMP_temperature;BMP_pressure;BME280_temperature;BME280_humidity;BME280_pressure;Samples;Min_cycle;Max_cycle;Signal;HPM_P1;HPM_P2
2023/01/23 06:21:42;;;;;;;47.40;32.65;;;;;;;21.64;31.20;103168.78;5172536;27;20156;-42
2023/01/23 06:24:11;;;;;;;48.72;33.63;;;;;;;21.98;30.09;103166.38;5151959;27;20390;-41
2023/01/23 06:26:39;;;;;;;49.38;36.10;;;;;;;22.23;29.42;103166.84;5150083;27;20045;-41
2023/01/23 06:29:08;;;;;;;51.17;34.75;;;;;;;22.36;29.28;103160.56;5143365;27;20675;-41
2023/01/23 06:31:35;;;;;;;56.47;36.50;;;;;;;22.35;29.43;103156.16;5149525;27;20530;-41
2023/01/23 06:34:03;;;;;;;52.72;35.20;;;;;;;22.51;28.81;103160.53;5150159;27;20030;-41
2023/01/23 06:36:31;;;;;;;58.00;37.88;;;;;;;22.55;29.00;103165.13;5150916;27;20546;-41
2023/01/23 06:39:00;;;;;;;52.72;35.22;;;;;;;22.59;28.87;103162.75;5150399;27;20038;-42
2023/01/23 06:41:28;;;;;;;51.95;36.13;;;;;;;22.61;28.87;103160.22;5150736;27;20527;-42
2023/01/23 06:43:55;;;;;;;48.65;33.70;;;;;;;22.66;28.82;103165.72;5136601;27;20076;-41
2023/01/23 06:46:23;;;;;;;51.65;34.58;;;;;;;22.65;28.78;103161.28;5150155;27;20033;-42
2023/01/23 06:48:53;;;;;;;55.03;36.17;;;;;;;22.59;28.34;103162.75;5149332;27;20019;-41
2023/01/23 06:51:20;;;;;;;52.03;35.28;;;;;;;22.68;28.92;103171.91;5150335;27;20025;-41
2023/01/23 06:53:49;;;;;;;53.38;34.92;;;;;;;22.67;28.43;103173.63;5132736;27;20102;-41
2023/01/23 06:56:17;;;;;;;56.53;34.95;;;;;;;22.69;28.79;103173.69;5146152;27;20072;-42
2023/01/23 06:58:47;;;;;;;56.72;37.17;;;;;;;22.67;28.60;103172.75;5131907;27;20027;-41
2023/01/23 07:01:17;;;;;;;48.60;34.88;;;;;;;22.67;28.54;103175.38;5150311;27;20030;-42
2023/01/23 07:03:45;;;;;;;51.13;34.97;;;;;;;22.66;28.78;103182.28;5150432;27;20423;-42
2023/01/23 07:06:15;;;;;;;51.03;35.53;;;;;;;22.69;28.76;103186.78;5149629;27;20034;-41
2023/01/23 07:08:43;;;;;;;49.50;35.63;;;;;;;22.74;28.37;103185.31;5149556;27;20496;-42
2023/01/23 07:11:12;;;;;;;45.30;32.40;;;;;;;22.72;28.66;103179.09;5150308;27;20402;-42
2023/01/23 07:13:40;;;;;;;48.58;34.20;;;;;;;22.74;28.07;103182.69;5150301;27;20075;-42
2023/01/23 07:16:09;;;;;;;49.03;32.78;;;;;;;22.78;28.77;103184.66;5135442;27;20643;-43
2023/01/23 07:18:37;;;;;;;53.72;34.58;;;;;;;22.75;28.38;103182.78;5149922;27;20027;-41
2023/01/23 07:21:07;;;;;;;46.10;31.83;;;;;;;22.74;28.65;103178.38;5129889;27;20155;-41
2023/01/23 07:23:36;;;;;;;45.15;30.85;;;;;;;22.78;28.67;103176.81;5136243;27;20482;-41
2023/01/23 07:26:08;;;;;;;50.45;34.30;;;;;;;22.78;28.03;103176.81;5135986;27;20019;-41
2023/01/23 07:28:36;;;;;;;48.38;32.50;;;;;;;22.66;28.55;103160.47;5135624;27;20386;-42
2023/01/23 07:31:06;;;;;;;49.00;32.08;;;;;;;22.74;28.15;103183.63;5135440;27;20042;-41
2023/01/23 07:33:34;;;;;;;40.70;28.77;;;;;;;22.73;28.76;103187.06;5135948;27;20462;-41
2023/01/23 07:36:06;;;;;;;43.35;31.33;;;;;;;22.71;28.37;103193.91;5135777;27;20047;-41
2023/01/23 07:38:35;;;;;;;50.55;33.13;;;;;;;22.75;28.21;103197.59;5135632;27;20027;-41
2023/01/23 07:41:03;;;;;;;44.92;31.25;;;;;;;22.71;28.32;103195.63;5116926;27;20472;-42
2023/01/23 07:43:32;;;;;;;46.88;32.83;;;;;;;22.76;28.31;103199.38;5135903;27;20106;-41
2023/01/23 07:46:01;;;;;;;46.80;33.08;;;;;;;22.72;28.10;103197.41;5135549;27;20601;-43
2023/01/23 07:48:29;;;;;;;48.20;33.35;;;;;;;22.73;28.13;103212.31;5119374;27;20050;-42
2023/01/23 07:50:56;;;;;;;53.65;31.80;;;;;;;22.72;28.00;103208.81;5132392;27;20031;-44
2023/01/23 07:53:23;;;;;;;49.28;31.55;;;;;;;22.72;28.31;103213.13;5106941;27;20363;-41
2023/01/23 07:55:50;;;;;;;44.92;32.00;;;;;;;22.76;28.38;103213.34;5134685;27;20037;-43
2023/01/23 07:58:18;;;;;;;50.40;32.60;;;;;;;22.80;28.47;103221.38;5133718;27;20023;-41
2023/01/23 08:00:45;;;;;;;45.50;32.45;;;;;;;22.79;28.43;103230.97;5133200;27;20034;-42
2023/01/23 08:03:12;;;;;;;47.08;30.92;;;;;;;22.79;28.43;103220.50;5123518;27;20024;-41
2023/01/23 08:05:39;;;;;;;49.08;32.45;;;;;;;22.77;28.33;103233.47;5131743;27;20019;-44
2023/01/23 08:08:07;;;;;;;47.25;32.05;;;;;;;22.75;28.06;103234.22;5133850;27;20023;-42
2023/01/23 08:10:35;;;;;;;49.15;31.10;;;;;;;22.77;28.36;103243.06;5133004;27;20120;-42
2023/01/23 08:13:03;;;;;;;43.85;30.52;;;;;;;22.76;28.04;103246.50;5134058;27;20079;-42
2023/01/23 08:15:30;;;;;;;46.53;31.02;;;;;;;22.76;28.36;103243.88;5133813;27;20019;-42
2023/01/23 08:17:58;;;;;;;48.25;33.13;;;;;;;22.74;28.49;103246.41;5125462;27;20023;-41
2023/01/23 08:20:27;;;;;;;51.40;33.40;;;;;;;22.74;28.11;103238.56;5133250;27;20131;-43
2023/01/23 08:22:57;;;;;;;46.45;31.52;;;;;;;22.79;28.43;103236.19;5134055;27;20051;-41
2023/01/23 08:25:26;;;;;;;45.95;31.10;;;;;;;22.67;28.29;103214.59;5133517;27;20030;-43
2023/01/23 08:27:54;;;;;;;45.65;30.70;;;;;;;22.77;28.51;103229.97;5133613;27;20023;-41
2023/01/23 08:30:22;;;;;;;52.13;32.05;;;;;;;22.73;28.28;103228.91;5132155;27;20559;-43
2023/01/23 08:32:51;;;;;;;47.50;31.00;;;;;;;22.82;28.30;103236.38;5132856;27;20474;-43
2023/01/23 08:35:19;;;;;;;46.75;31.55;;;;;;;22.81;28.31;103228.41;5133529;27;20417;-46
2023/01/23 08:37:47;;;;;;;45.90;31.85;;;;;;;22.82;28.26;103231.13;5133515;27;20031;-41
2023/01/23 08:40:16;;;;;;;45.15;30.77;;;;;;;22.76;28.38;103228.16;5134139;27;20023;-43
2023/01/23 08:42:44;;;;;;;45.10;30.67;;;;;;;22.81;28.60;103231.94;5133776;27;20497;-43
2023/01/23 08:45:12;;;;;;;49.72;32.33;;;;;;;22.79;28.22;103230.03;5133860;27;20085;-41
2023/01/23 08:47:41;;;;;;;49.75;31.63;;;;;;;22.80;28.23;103230.16;5134442;27;20027;-42
2023/01/23 08:50:10;;;;;;;49.30;32.15;;;;;;;22.80;28.85;103238.00;5134147;27;20034;-43
2023/01/23 08:52:38;;;;;;;56.42;33.17;;;;;;;22.75;28.31;103219.41;5133671;27;20534;-43
2023/01/23 08:55:06;;;;;;;54.75;34.63;;;;;;;22.83;28.56;103238.16;5133841;27;20063;-41
2023/01/23 08:57:35;;;;;;;60.90;35.55;;;;;;;22.81;28.53;103242.41;5134112;27;20075;-42
2023/01/23 09:00:04;;;;;;;67.28;36.83;;;;;;;22.81;29.18;103242.41;5134134;27;20023;-43
2023/01/23 09:02:32;;;;;;;69.65;38.80;;;;;;;22.81;28.96;103244.13;5133902;27;20031;-43
2023/01/23 09:04:59;;;;;;;66.55;38.50;;;;;;;22.80;29.06;103237.06;5133483;27;20027;-42
2023/01/23 09:07:28;;;;;;;68.50;39.00;;;;;;;22.82;28.77;103231.13;5133894;27;20404;-43
2023/01/23 09:09:56;;;;;;;76.78;39.85;;;;;;;22.84;29.09;103231.19;5133510;27;20035;-42
2023/01/23 09:12:25;;;;;;;73.35;38.85;;;;;;;22.87;29.08;103234.00;5133660;27;20042;-44
2023/01/23 09:14:52;;;;;;;72.25;39.58;;;;;;;22.83;28.63;103230.31;5133174;27;20084;-42
2023/01/23 09:17:20;;;;;;;77.50;40.85;;;;;;;22.85;28.76;103230.38;5133553;27;20023;-46
2023/01/23 09:19:49;;;;;;;80.68;40.65;;;;;;;22.77;28.77;103214.28;5133242;27;20039;-44
2023/01/23 09:22:17;;;;;;;70.85;39.10;;;;;;;22.81;29.03;103228.41;5133309;27;20042;-44
2023/01/23 09:24:44;;;;;;;71.15;39.50;;;;;;;22.82;28.60;103236.38;5133295;27;20027;-43
2023/01/23 09:27:13;;;;;;;74.05;39.80;;;;;;;22.85;28.66;103233.00;5133520;27;20160;-44
2023/01/23 09:29:41;;;;;;;76.50;39.22;;;;;;;22.85;28.59;103238.25;5133382;27;20031;-45
2023/01/23 09:32:09;;;;;;;67.88;37.70;;;;;;;22.83;28.87;103240.78;5129463;27;20382;-44
2023/01/23 09:34:37;;;;;;;64.47;37.42;;;;;;;22.84;28.83;103241.66;5132599;27;20062;-45
2023/01/23 09:37:06;;;;;;;62.00;35.85;;;;;;;22.84;29.15;103253.03;5113883;28;20057;-43
2023/01/23 09:39:35;;;;;;;63.67;36.45;;;;;;;22.88;28.80;103239.28;5117691;27;20028;-44
2023/01/23 09:42:09;;;;;;;66.07;36.40;;;;;;;22.90;28.45;103248.13;5130134;27;20023;-46
2023/01/23 09:44:40;;;;;;;61.10;37.90;;;;;;;22.93;28.80;103247.38;5131220;27;20068;-45
2023/01/23 09:47:28;;;;;;;58.10;37.00;;;;;;;22.98;29.15;103251.16;5132406;27;21276;-45
2023/01/23 09:50:00;;;;;;;65.53;37.85;;;;;;;23.05;28.67;103253.28;5112844;27;20478;-43
2023/01/23 09:52:37;;;;;;;57.22;35.97;;;;;;;23.04;28.27;103259.34;5131904;27;20096;-43
2023/01/23 09:55:17;;;;;;;58.40;34.85;;;;;;;23.04;28.38;103263.66;5130857;27;20031;-45
2023/01/23 09:57:48;;;;;;;51.97;33.53;;;;;;;23.11;28.50;103259.66;5103892;28;20024;-42
2023/01/23 10:00:35;;;;;;;64.18;34.80;;;;;;;23.06;28.40;103259.41;5131950;27;20027;-44
2023/01/23 10:03:10;;;;;;;54.08;33.58;;;;;;;23.08;28.64;103257.78;5130231;28;20110;-46
2023/01/23 10:05:49;;;;;;;55.88;33.55;;;;;;;23.14;28.48;103259.81;5118404;27;20397;-42
2023/01/23 10:08:25;;;;;;;52.15;32.22;;;;;;;23.14;28.25;103265.06;5130139;28;20058;-42
2023/01/23 10:10:55;;;;;;;47.35;32.85;;;;;;;23.17;28.11;103260.88;5115762;28;20038;-42
2023/01/23 10:13:50;;;;;;;56.58;33.58;;;;;;;23.13;28.46;103260.63;5116313;28;20081;-44
2023/01/23 10:16:41;;;;;;;54.05;33.72;;;;;;;23.16;28.27;103266.03;5113539;28;20115;-46
2023/01/23 10:19:39;;;;;;;50.30;32.22;;;;;;;23.17;28.53;103260.88;5131359;28;20426;-43
2023/01/23 10:22:15;;;;;;;58.45;35.85;;;;;;;23.22;28.35;103271.66;5115164;28;20043;-42
2023/01/23 10:24:56;;;;;;;57.95;33.20;;;;;;;23.20;28.07;103266.31;5131018;28;20030;-41
2023/01/23 10:27:32;;;;;;;49.85;32.97;;;;;;;23.28;27.97;103274.56;5117238;28;20076;-41
2023/01/23 10:30:04;;;;;;;49.17;31.63;;;;;;;23.25;28.37;103260.44;5118228;28;20032;-41
2023/01/23 10:32:48;;;;;;;52.65;32.88;;;;;;;23.14;28.26;103237.19;5131312;27;20423;-41
2023/01/23 10:35:19;;;;;;;52.20;33.55;;;;;;;23.33;28.09;103266.97;5131034;28;20035;-43
2023/01/23 10:37:51;;;;;;;49.20;31.90;;;;;;;23.28;28.47;103263.22;5117803;28;20024;-44
2023/01/23 10:43:28;;;;;;;49.30;33.30;;;;;;;23.36;27.89;103264.50;5121316;28;20043;-40
2023/01/23 10:45:55;;;;;;;49.17;33.47;;;;;;;23.37;27.93;103263.69;5129129;28;20106;-41
2023/01/23 10:48:43;;;;;;;50.97;33.53;;;;;;;23.34;28.48;103263.50;5133085;27;20474;-42
2023/01/23 10:51:33;;;;;;;49.08;32.63;;;;;;;23.35;28.11;103265.31;5116248;28;20492;-41
2023/01/23 10:54:07;;;;;;;50.30;32.60;;;;;;;23.37;28.06;103261.06;5111395;28;20034;-42
2023/01/23 10:56:38;;;;;;;50.83;33.73;;;;;;;23.41;28.26;103257.78;5116296;27;20428;-41
2023/01/23 10:59:12;;;;;;;47.80;32.10;;;;;;;23.41;27.98;103256.91;5118542;27;20287;-40
2023/01/23 11:01:41;;;;;;;50.50;31.63;;;;;;;23.42;28.12;103249.09;5121520;27;20076;-41
2023/01/23 11:04:22;;;;;;;51.05;32.75;;;;;;;23.42;28.24;103246.50;5136725;27;20023;-42
2023/01/23 11:07:14;;;;;;;51.88;34.22;;;;;;;23.42;28.03;103254.34;5136779;27;20034;-42
2023/01/23 11:09:46;;;;;;;57.88;35.45;;;;;;;23.43;28.35;103239.50;5128929;27;20082;-43
2023/01/23 11:12:18;;;;;;;48.95;32.50;;;;;;;23.44;28.33;103244.84;5133337;27;20116;-47
2023/01/23 11:14:46;;;;;;;49.28;31.63;;;;;;;23.47;28.35;103239.78;5134959;27;20019;-45
2023/01/23 11:17:17;;;;;;;51.38;33.15;;;;;;;23.47;28.39;103242.41;5135385;27;20034;-44
2023/01/23 11:19:46;;;;;;;47.63;31.83;;;;;;;23.48;27.84;103249.44;5134503;27;20055;-42
2023/01/23 11:22:36;;;;;;;56.45;33.95;;;;;;;23.46;28.19;103240.59;5133955;27;20390;-42
2023/01/23 11:25:27;;;;;;;55.72;33.85;;;;;;;23.44;28.22;103247.47;5128193;27;20039;-42
2023/01/23 11:28:01;;;;;;;52.78;34.78;;;;;;;23.46;28.12;103251.06;5134650;27;20027;-42
2023/01/23 11:30:33;;;;;;;50.88;32.58;;;;;;;23.48;28.44;103238.03;5106830;27;20034;-44
2023/01/23 11:33:14;;;;;;;44.55;30.90;;;;;;;23.49;28.36;103240.75;5134260;27;20038;-42
2023/01/23 11:35:55;;;;;;;50.30;34.58;;;;;;;23.49;28.59;103229.38;5116063;27;20026;-41
2023/01/23 11:38:26;;;;;;;48.80;32.72;;;;;;;23.55;28.11;103231.38;5134981;27;20482;-41
2023/01/23 11:40:54;;;;;;;50.95;32.67;;;;;;;23.54;27.96;103221.72;5132583;27;20027;-42
2023/01/23 11:43:21;;;;;;;47.85;31.27;;;;;;;23.61;27.96;103231.72;5132715;27;20363;-44
2023/01/23 11:46:01;;;;;;;49.95;32.50;;;;;;;23.55;28.05;103236.63;5134424;27;20011;-43
2023/01/23 11:48:45;;;;;;;50.22;32.42;;;;;;;23.55;28.42;103228.78;5117407;27;20035;-41
2023/01/23 11:51:23;;;;;;;52.05;33.42;;;;;;;23.52;28.42;103230.41;5133504;27;20027;-42
2023/01/23 11:54:19;;;;;;;53.70;35.17;;;;;;;23.49;28.18;103225.03;5119358;27;20385;-42
2023/01/23 11:56:59;;;;;;;51.63;33.63;;;;;;;23.48;28.70;103228.47;5132857;27;20039;-44
2023/01/23 11:59:26;;;;;;;54.10;34.55;;;;;;;23.51;28.70;103222.50;5133449;27;20063;-45
2023/01/23 12:02:13;;;;;;;52.72;34.33;;;;;;;23.48;28.44;103217.09;5132705;27;20389;-42
2023/01/23 12:04:52;;;;;;;54.60;35.78;;;;;;;23.50;28.76;103215.44;5126887;27;20035;-42
2023/01/23 12:07:23;;;;;;;57.63;37.28;;;;;;;23.51;28.50;103206.78;5118828;27;20038;-43
2023/01/23 12:09:56;;;;;;;62.25;37.85;;;;;;;23.50;28.90;103202.34;5123064;27;20036;-42
2023/01/23 12:12:40;;;;;;;53.65;34.45;;;;;;;23.48;28.82;103198.75;5119076;27;20035;-43
2023/01/23 12:15:26;;;;;;;59.55;39.35;;;;;;;23.50;28.58;103204.97;5133594;27;20027;-42
2023/01/23 12:18:14;;;;;;;56.33;35.65;;;;;;;23.48;28.50;103202.28;5132517;27;20023;-43
2023/01/23 12:20:53;;;;;;;61.92;37.85;;;;;;;23.49;28.68;103193.59;5125462;27;20100;-43
2023/01/23 12:23:29;;;;;;;55.63;36.92;;;;;;;23.50;28.60;103197.09;5121176;27;20431;-41
2023/01/23 12:26:04;;;;;;;61.22;40.13;;;;;;;23.50;28.94;103192.75;5121934;27;20074;-43
2023/01/23 12:29:01;;;;;;;62.22;39.97;;;;;;;23.47;28.75;103181.22;5132474;27;20019;-43
2023/01/23 12:31:44;;;;;;;56.83;36.28;;;;;;;23.47;28.98;103173.38;5127397;27;20035;-42
2023/01/23 12:34:16;;;;;;;60.50;36.88;;;;;;;23.51;28.81;103170.09;5123075;27;20102;-41
2023/01/23 12:37:07;;;;;;;62.05;39.85;;;;;;;23.49;28.90;103171.72;5133545;27;20015;-42
2023/01/23 12:39:44;;;;;;;66.75;39.45;;;;;;;23.48;28.97;103157.75;5119534;27;20035;-42
2023/01/23 12:42:44;;;;;;;61.83;38.00;;;;;;;23.51;29.00;103159.63;5132811;27;20016;-43
2023/01/23 12:45:11;;;;;;;62.47;38.28;;;;;;;23.55;28.90;103150.16;5125154;27;20039;-46
2023/01/23 12:47:43;;;;;;;56.83;36.70;;;;;;;23.51;28.74;103141.28;5133659;27;20027;-41
2023/01/23 12:50:18;;;;;;;59.58;37.70;;;;;;;23.51;28.65;103129.06;5132657;27;20072;-42
2023/01/23 12:52:55;;;;;;;57.60;37.20;;;;;;;23.51;28.69;103133.41;5131165;27;20046;-42
2023/01/23 12:55:35;;;;;;;57.80;37.90;;;;;;;23.47;29.07;103128.84;5122807;27;20287;-42
2023/01/23 12:58:03;;;;;;;64.03;38.47;;;;;;;23.49;29.34;103115.00;5122510;27;20026;-42
2023/01/23 13:00:51;;;;;;;58.55;37.00;;;;;;;23.54;28.92;103128.34;5124911;27;20019;-43
2023/01/23 13:03:35;;;;;;;65.55;38.08;;;;;;;23.50;28.86;103127.25;5126428;27;20031;-45
2023/01/23 13:06:06;;;;;;;68.32;38.33;;;;;;;23.55;29.15;103114.41;5129926;27;20023;-41
2023/01/23 13:08:43;;;;;;;63.70;38.42;;;;;;;23.51;29.22;103110.72;5133330;27;20071;-42
2023/01/23 13:11:59;;;;;;;69.15;38.50;;;;;;;23.56;28.90;103112.69;5132236;27;20031;-43
2023/01/23 13:14:16;;;;;;;64.07;38.92;;;;;;;23.54;29.14;103119.56;5126814;27;20027;-42
2023/01/23 13:16:47;;;;;;;63.15;39.00;;;;;;;23.58;29.26;103111.91;5132283;27;20027;-42
2023/01/23 13:22:18;;;;;;;55.00;36.70;;;;;;;23.54;29.19;103116.94;5119200;27;20051;-45
2023/01/23 13:25:11;;;;;;;61.60;38.60;;;;;;;23.55;28.67;103108.25;5132553;27;20026;-43
2023/01/23 13:27:38;;;;;;;58.45;37.35;;;;;;;23.56;29.38;103108.34;5127005;27;20357;-41
2023/01/23 13:30:25;;;;;;;69.97;38.50;;;;;;;23.51;29.23;103108.09;5132329;27;20186;-43
2023/01/23 13:32:59;;;;;;;67.82;38.22;;;;;;;23.53;28.96;103105.56;5120137;27;20028;-43
2023/01/23 13:35:48;;;;;;;62.13;36.97;;;;;;;23.55;29.09;103103.00;5132525;27;20479;-44
2023/01/23 13:38:28;;;;;;;60.35;35.25;;;;;;;23.56;28.99;103100.50;5130783;27;20031;-41
2023/01/23 13:41:13;;;;;;;59.38;34.55;;;;;;;23.60;28.93;103101.53;5132098;27;20027;-41
2023/01/23 13:44:02;;;;;;;49.42;32.65;;;;;;;23.63;29.29;103102.56;5130003;27;20159;-44
2023/01/23 13:46:50;;;;;;;47.33;29.73;;;;;;;23.63;29.30;103109.53;5127955;27;20027;-43
2023/01/23 13:49:49;;;;;;;47.67;29.75;;;;;;;23.65;28.95;103095.69;5126338;27;20064;-46
2023/01/23 13:58:20;;;;;;;45.15;23.83;;;;;;;23.74;29.00;103099.59;5125698;27;20578;-44
2023/01/23 14:06:34;;;;;;;33.63;19.95;;;;;;;23.74;28.73;103096.97;5129946;27;20075;-44
2023/01/23 14:09:02;;;;;;;34.78;19.58;;;;;;;23.71;28.53;103102.03;5133074;27;20027;-44
2023/01/23 14:11:40;;;;;;;34.35;18.60;;;;;;;23.67;28.38;103098.34;5133866;27;20023;-42
2023/01/23 14:16:56;;;;;;;28.75;16.52;;;;;;;23.72;29.07;103099.50;5126869;27;20031;-43
2023/01/23 14:19:30;;;;;;;26.20;16.02;;;;;;;23.73;29.74;103096.03;5131935;28;20122;-45
2023/01/23 14:21:59;;;;;;;24.25;15.18;;;;;;;23.75;29.75;103104.88;5133615;27;20034;-43
2023/01/23 14:24:29;;;;;;;22.25;14.77;;;;;;;23.76;30.03;103100.53;5133629;27;20505;-42
2023/01/23 14:27:07;;;;;;;25.83;13.93;;;;;;;23.73;30.41;103098.66;5132485;28;20031;-43
2023/01/23 14:29:36;;;;;;;17.42;11.60;;;;;;;23.73;30.23;103108.25;5133140;27;20027;-43
2023/01/23 14:32:03;;;;;;;28.20;14.68;;;;;;;23.73;30.17;103103.91;5135512;27;20023;-46
2023/01/23 14:34:39;;;;;;;20.80;12.18;;;;;;;23.70;29.75;103097.63;5137509;27;20393;-45
2023/01/23 14:37:11;;;;;;;18.67;11.95;;;;;;;23.71;29.62;103095.06;5136627;27;20035;-43
2023/01/23 14:39:38;;;;;;;18.92;11.73;;;;;;;23.71;29.76;103099.44;5136857;27;20531;-41
2023/01/23 14:42:07;;;;;;;18.98;10.77;;;;;;;23.72;29.62;103101.22;5136898;27;20058;-42
2023/01/23 14:44:45;;;;;;;15.35;9.45;;;;;;;23.69;29.34;103109.81;5136257;27;20470;-42
2023/01/23 14:47:25;;;;;;;16.00;9.95;;;;;;;23.69;29.39;103096.72;5137843;27;20038;-44
2023/01/23 14:49:53;;;;;;;14.68;8.48;;;;;;;23.72;29.51;103104.72;5136978;27;20019;-42
2023/01/23 14:52:27;;;;;;;17.73;9.10;;;;;;;23.68;29.22;103100.16;5136125;27;20527;-43
2023/01/23 14:54:57;;;;;;;14.13;8.77;;;;;;;23.70;29.34;103102.88;5137502;27;20033;-42
2023/01/23 14:57:25;;;;;;;16.13;9.55;;;;;;;23.70;28.71;103100.25;5137551;27;20027;-43
2023/01/23 14:59:58;;;;;;;12.65;8.23;;;;;;;23.73;28.67;103096.03;5128160;27;20478;-43
2023/01/23 15:02:30;;;;;;;15.18;7.78;;;;;;;23.62;28.73;103082.41;5119284;27;20094;-45
2023/01/23 15:05:19;;;;;;;13.30;7.70;;;;;;;23.67;29.16;103087.88;5116579;28;20019;-42
2023/01/23 15:08:08;;;;;;;16.83;7.45;;;;;;;23.69;28.76;103091.47;5110577;28;20093;-44
2023/01/23 15:10:44;;;;;;;10.35;7.40;;;;;;;23.64;28.81;103087.75;5111947;28;20048;-46
2023/01/23 15:13:14;;;;;;;12.27;6.88;;;;;;;23.63;28.46;103081.59;5115918;28;20035;-44
2023/01/23 15:15:46;;;;;;;10.43;7.18;;;;;;;23.66;29.19;103088.72;5115631;28;20031;-43
2023/01/23 15:18:34;;;;;;;9.82;6.40;;;;;;;23.62;29.08;103090.28;5116732;28;20054;-45
2023/01/23 15:21:05;;;;;;;10.70;6.53;;;;;;;23.68;28.64;103094.91;5115260;28;20047;-44
2023/01/23 15:23:36;;;;;;;10.85;5.50;;;;;;;23.67;28.70;103093.13;5114930;28;20394;-47
2023/01/23 15:26:24;;;;;;;8.98;5.43;;;;;;;23.66;28.91;103094.84;5116112;28;20110;-44
2023/01/23 15:29:12;;;;;;;8.23;5.13;;;;;;;23.62;28.69;103103.38;5098235;28;20110;-42
2023/01/23 15:31:40;;;;;;;7.43;4.93;;;;;;;23.66;28.67;103086.13;5115357;28;20111;-42
2023/01/23 15:34:18;;;;;;;7.72;5.05;;;;;;;23.63;28.82;103099.06;5116348;28;20069;-43
2023/01/23 15:36:57;;;;;;;10.02;5.03;;;;;;;23.66;28.53;103093.97;5116284;28;20034;-46
2023/01/23 15:39:27;;;;;;;8.88;4.13;;;;;;;23.69;28.69;103095.84;5116106;28;20103;-44
2023/01/23 15:41:59;;;;;;;9.25;3.88;;;;;;;23.65;28.61;103107.91;5113743;28;20028;-43
2023/01/23 15:44:29;;;;;;;6.22;4.03;;;;;;;23.64;28.45;103091.25;5114665;28;20102;-43
2023/01/23 15:46:59;;;;;;;8.10;4.22;;;;;;;23.66;28.58;103096.59;5115922;28;20085;-46
2023/01/23 15:49:29;;;;;;;6.82;3.72;;;;;;;23.63;28.55;103109.53;5116397;28;20553;-44
2023/01/23 15:51:59;;;;;;;6.55;3.78;;;;;;;23.66;28.59;103117.56;5113726;28;20032;-44
2023/01/23 15:54:33;;;;;;;5.38;3.95;;;;;;;23.64;28.74;103108.72;5115980;28;20039;-44
2023/01/23 15:57:03;;;;;;;8.45;4.43;;;;;;;23.63;28.11;103102.56;5114977;28;20023;-44
2023/01/23 15:59:34;;;;;;;8.02;4.82;;;;;;;23.57;28.32;103101.38;5115795;28;20035;-43
2023/01/23 16:02:03;;;;;;;6.72;4.53;;;;;;;23.61;28.19;103104.22;5113735;28;20030;-41
2023/01/23 16:04:31;;;;;;;6.65;3.88;;;;;;;23.57;28.14;103104.00;5114544;28;20044;-47
2023/01/23 16:07:05;;;;;;;7.32;3.55;;;;;;;23.57;28.57;103107.53;5115844;28;20023;-42
2023/01/23 16:09:36;;;;;;;5.05;3.35;;;;;;;23.51;28.33;103101.97;5115532;28;20110;-41
2023/01/23 16:12:04;;;;;;;9.38;3.53;;;;;;;23.59;28.30;103116.34;5118497;27;20031;-41
2023/01/23 16:14:31;;;;;;;5.15;3.47;;;;;;;23.59;28.37;103110.22;5136269;27;20023;-41
2023/01/23 16:17:00;;;;;;;5.47;3.45;;;;;;;23.56;28.16;103116.22;5135885;27;20114;-43
2023/01/23 16:19:29;;;;;;;7.93;3.22;;;;;;;23.60;28.41;103115.50;5135767;27;20117;-42
2023/01/23 16:21:56;;;;;;;4.38;2.83;;;;;;;23.58;28.69;103119.78;5135080;27;20038;-41
2023/01/23 16:24:24;;;;;;;6.32;3.50;;;;;;;23.59;28.57;103120.69;5134406;27;20027;-42
2023/01/23 16:26:55;;;;;;;6.65;3.35;;;;;;;23.58;28.40;103121.50;5136047;27;20133;-47
2023/01/23 16:29:27;;;;;;;3.95;2.40;;;;;;;23.60;28.34;103122.50;5135631;27;20141;-41
2023/01/23 16:31:55;;;;;;;4.47;2.58;;;;;;;23.60;28.66;103122.50;5135439;27;20080;-42
2023/01/23 16:34:22;;;;;;;4.90;2.47;;;;;;;23.61;28.55;103112.06;5135630;27;20023;-41
2023/01/23 16:36:52;;;;;;;5.57;2.72;;;;;;;23.46;28.34;103088.66;5135525;27;20038;-41
2023/01/23 16:39:23;;;;;;;4.95;2.97;;;;;;;23.62;28.61;103107.75;5134190;27;20049;-44
2023/01/23 16:41:53;;;;;;;5.47;2.97;;;;;;;23.69;28.28;103115.06;5135184;27;20462;-41
2023/01/23 16:44:22;;;;;;;6.03;3.40;;;;;;;23.75;28.56;103117.06;5135131;27;20054;-41
2023/01/23 16:46:51;;;;;;;7.35;3.13;;;;;;;23.69;28.22;103116.78;5134410;27;20098;-41
2023/01/23 16:49:19;;;;;;;3.60;2.83;;;;;;;23.71;28.58;103116.03;5133648;27;20038;-41
2023/01/23 16:51:57;;;;;;;4.50;2.70;;;;;;;23.77;28.72;103107.56;5135135;27;20019;-42
2023/01/23 16:54:25;;;;;;;5.22;2.70;;;;;;;23.79;28.29;103114.69;5133934;27;20102;-44
2023/01/23 16:56:55;;;;;;;3.97;2.50;;;;;;;23.79;28.50;103111.16;5134283;27;20030;-40
2023/01/23 16:59:28;;;;;;;5.18;2.80;;;;;;;23.74;28.79;103105.69;5135042;27;20156;-43
2023/01/23 17:01:55;;;;;;;3.35;2.58;;;;;;;23.78;29.00;103110.28;5134569;27;20020;-41
2023/01/23 17:04:23;;;;;;;5.28;3.20;;;;;;;23.88;29.21;103110.69;5134735;27;20102;-41
2023/01/23 17:06:50;;;;;;;6.45;3.00;;;;;;;23.80;29.17;103116.50;5134579;27;20094;-44
2023/01/23 17:09:17;;;;;;;4.13;2.88;;;;;;;23.79;29.34;103109.44;5133724;27;20023;-41
2023/01/23 17:11:46;;;;;;;7.03;3.13;;;;;;;23.85;28.92;103118.41;5134126;27;20110;-41
2023/01/23 17:14:30;;;;;;;5.20;3.25;;;;;;;23.79;28.99;103114.69;5133085;27;20019;-41
2023/01/23 17:17:04;;;;;;;6.43;3.75;;;;;;;23.91;29.17;103113.47;5133434;27;20019;-40
2023/01/23 17:19:36;;;;;;;5.43;3.20;;;;;;;23.82;29.14;103098.22;5134216;27;20107;-46
2023/01/23 17:22:05;;;;;;;4.75;2.80;;;;;;;23.94;29.06;103119.75;5130083;27;20417;-44
2023/01/23 17:24:32;;;;;;;5.80;2.83;;;;;;;23.94;29.15;103118.88;5123569;27;20055;-44
2023/01/23 17:27:00;;;;;;;4.88;2.80;;;;;;;23.86;29.24;103112.34;5114412;27;20088;-45
2023/01/23 17:29:28;;;;;;;4.90;2.90;;;;;;;23.95;29.06;103131.16;5113648;28;20080;-43
2023/01/23 17:31:57;;;;;;;4.30;2.65;;;;;;;23.97;29.19;103130.41;5113385;28;20023;-44
2023/01/23 17:34:26;;;;;;;3.67;2.65;;;;;;;23.96;29.54;103120.75;5095238;28;20030;-44
2023/01/23 17:36:54;;;;;;;4.15;2.85;;;;;;;23.95;29.25;103123.28;5112078;28;20503;-42
2023/01/23 17:39:21;;;;;;;5.75;2.70;;;;;;;23.97;29.56;103126.91;5112121;28;20426;-43
2023/01/23 17:41:50;;;;;;;3.85;2.65;;;;;;;23.98;29.68;103128.72;5112030;28;20102;-44
2023/01/23 17:44:17;;;;;;;7.60;2.83;;;;;;;23.98;29.49;103128.72;5113310;28;20023;-41
2023/01/23 17:46:45;;;;;;;11.55;2.72;;;;;;;24.06;29.79;103132.56;5117148;27;20016;-43
2023/01/23 17:49:31;;;;;;;6.82;2.60;;;;;;;24.03;29.81;103131.53;5133927;27;20027;-46
2023/01/23 17:52:00;;;;;;;4.25;2.17;;;;;;;24.06;29.41;103137.81;5133383;27;20510;-45
2023/01/23 17:54:28;;;;;;;8.35;2.67;;;;;;;24.11;29.21;103138.94;5133564;27;20102;-42
2023/01/23 17:56:55;;;;;;;2.92;2.03;;;;;;;24.11;29.19;103143.28;5133501;27;20114;-42
2023/01/23 17:59:22;;;;;;;3.78;2.40;;;;;;;24.07;29.73;103137.00;5133616;27;20015;-41
2023/01/23 18:01:50;;;;;;;3.72;2.22;;;;;;;24.07;29.57;103142.25;5133695;27;20061;-44
2023/01/23 18:04:20;;;;;;;4.50;2.00;;;;;;;24.14;29.56;103153.91;5133817;27;20566;-43
2023/01/23 18:06:48;;;;;;;5.05;2.45;;;;;;;24.16;29.76;103149.66;5131816;27;20477;-45
2023/01/23 18:09:17;;;;;;;4.40;2.30;;;;;;;24.16;29.60;103149.66;5133943;27;20030;-43
2023/01/23 18:11:57;;;;;;;5.43;1.85;;;;;;;24.18;29.41;103157.56;5133510;27;20019;-44
2023/01/23 18:14:40;;;;;;;3.35;2.08;;;;;;;24.09;29.83;103151.09;5132639;28;20076;-41
2023/01/23 18:17:37;;;;;;;3.33;2.28;;;;;;;24.15;29.72;103154.84;5125104;28;20478;-42
2023/01/23 18:20:17;;;;;;;5.25;2.75;;;;;;;24.22;29.39;103162.13;5116297;28;20056;-45
2023/01/23 18:22:45;;;;;;;5.25;2.58;;;;;;;24.19;29.27;103155.03;5131706;27;20075;-43